createdAt,value
2017-12-13T00:01:03.694Z,5.78
2017-12-13T00:03:31.959Z,13.32
2017-12-13T00:05:59.424Z,12.65
2017-12-13T00:08:26.920Z,8.60
2017-12-13T00:10:54.438Z,7.25
2017-12-13T00:13:21.911Z,8.93
2017-12-13T00:15:50.170Z,5.25
2017-12-13T00:18:17.668Z,7.12
2017-12-13T00:20:45.134Z,6.65
2017-12-13T00:23:12.626Z,8.23
2017-12-13T00:25:40.109Z,8.73
2017-12-13T00:28:07.610Z,9.90
2017-12-13T00:30:35.064Z,6.43
2017-12-13T00:33:02.573Z,6.28
2017-12-13T00:35:30.070Z,9.60
2017-12-13T00:37:57.561Z,7.53
2017-12-13T00:40:25.026Z,6.55
2017-12-13T00:42:52.514Z,7.43
2017-12-13T00:45:19.975Z,7.90
2017-12-13T00:47:47.483Z,8.57
2017-12-13T00:50:15.002Z,10.90
2017-12-13T00:52:43.239Z,12.68
2017-12-13T00:55:10.703Z,6.87
2017-12-13T00:57:38.207Z,7.28
2017-12-13T01:00:06.484Z,9.85
2017-12-13T01:02:34.705Z,12.37
2017-12-13T01:05:02.159Z,8.30
2017-12-13T01:07:29.656Z,9.00
2017-12-13T01:09:57.126Z,7.70
2017-12-13T01:12:25.393Z,11.40
2017-12-13T01:14:52.855Z,7.70
2017-12-13T01:17:20.355Z,8.77
2017-12-13T01:19:47.810Z,7.97
2017-12-13T01:22:15.284Z,7.25
2017-12-13T01:24:42.788Z,12.00
2017-12-13T01:27:10.259Z,8.23
2017-12-13T01:29:38.522Z,9.00
2017-12-13T01:32:06.767Z,14.68
2017-12-13T01:34:34.227Z,9.00
2017-12-13T01:37:01.714Z,11.38
2017-12-13T01:39:29.182Z,13.02
2017-12-13T01:41:57.440Z,10.38
2017-12-13T01:44:24.895Z,11.80
2017-12-13T01:46:52.390Z,13.00
2017-12-13T01:49:19.860Z,11.45
2017-12-13T01:51:47.371Z,11.20
2017-12-13T01:54:14.839Z,10.88
2017-12-13T01:56:42.323Z,9.65
2017-12-13T01:59:10.579Z,7.85
2017-12-13T02:01:38.038Z,7.97
2017-12-13T02:04:06.294Z,11.30
2017-12-13T02:06:33.758Z,8.98
2017-12-13T02:09:01.991Z,10.65
2017-12-13T02:11:29.440Z,8.00
2017-12-13T02:13:56.921Z,9.80
2017-12-13T02:16:24.415Z,11.23
2017-12-13T02:18:51.933Z,11.55
2017-12-13T02:21:19.392Z,8.60
2017-12-13T02:23:46.845Z,9.98
2017-12-13T02:26:14.398Z,10.43
2017-12-13T02:28:41.846Z,10.20
2017-12-13T02:31:09.350Z,10.60
2017-12-13T02:33:36.806Z,9.60
2017-12-13T02:36:04.331Z,7.60
2017-12-13T02:38:31.827Z,9.48
2017-12-13T02:41:01.124Z,7.20
2017-12-13T02:43:28.620Z,8.98
2017-12-13T02:45:56.860Z,11.52
2017-12-13T02:48:24.323Z,9.43
2017-12-13T02:50:51.817Z,9.63
2017-12-13T02:53:20.071Z,9.63
2017-12-13T02:55:48.508Z,12.10
2017-12-13T02:58:15.958Z,5.97
2017-12-13T03:00:43.587Z,11.88
2017-12-13T03:03:11.823Z,10.05
2017-12-13T03:05:39.287Z,11.88
2017-12-13T03:08:06.811Z,7.82
2017-12-13T03:10:34.283Z,10.02
2017-12-13T03:13:01.778Z,6.50
2017-12-13T03:15:29.248Z,10.05
2017-12-13T03:17:56.776Z,7.97
2017-12-13T03:20:24.246Z,7.15
2017-12-13T03:22:51.719Z,13.25
2017-12-13T03:25:19.243Z,10.02
2017-12-13T03:27:46.694Z,7.20
2017-12-13T03:30:14.160Z,7.05
2017-12-13T03:32:41.648Z,9.63
2017-12-13T03:35:09.104Z,8.23
2017-12-13T03:37:36.614Z,8.25
2017-12-13T03:40:04.081Z,11.12
2017-12-13T03:42:31.546Z,8.70
2017-12-13T03:44:59.030Z,8.15
2017-12-13T03:47:26.514Z,6.80
2017-12-13T03:49:54.777Z,10.65
2017-12-13T03:52:22.252Z,7.07
2017-12-13T03:54:50.501Z,15.65
2017-12-13T03:57:17.986Z,7.35
2017-12-13T03:59:46.247Z,7.60
2017-12-13T04:02:13.711Z,9.57
2017-12-13T04:04:41.341Z,7.75
2017-12-13T04:07:08.842Z,7.62
2017-12-13T04:09:37.062Z,5.45
2017-12-13T04:12:04.564Z,10.27
2017-12-13T04:14:32.041Z,6.40
2017-12-13T04:17:00.298Z,6.28
2017-12-13T04:19:27.791Z,7.97
2017-12-13T04:21:55.278Z,10.13
2017-12-13T04:24:22.788Z,9.23
2017-12-13T04:26:51.034Z,7.60
2017-12-13T04:29:18.534Z,4.65
2017-12-13T04:31:46.766Z,6.15
2017-12-13T04:34:14.262Z,10.23
2017-12-13T04:36:42.511Z,5.85
2017-12-13T04:39:10.003Z,10.18
2017-12-13T04:41:38.284Z,16.35
2017-12-13T04:44:05.758Z,8.23
2017-12-13T04:46:33.291Z,10.07
2017-12-13T04:49:01.930Z,9.15
2017-12-13T04:51:29.388Z,9.85
2017-12-13T04:53:56.903Z,8.85
2017-12-13T04:56:25.294Z,13.55
2017-12-13T04:58:52.819Z,12.07
2017-12-13T05:01:20.302Z,11.18
2017-12-13T05:03:48.542Z,8.57
2017-12-13T05:06:16.071Z,8.63
2017-12-13T05:08:43.538Z,6.90
2017-12-13T05:11:11.030Z,8.50
2017-12-13T05:13:38.499Z,10.40
2017-12-13T05:16:06.790Z,13.57
2017-12-13T05:18:34.258Z,9.80
2017-12-13T05:21:01.770Z,17.27
2017-12-13T05:23:29.232Z,9.25
2017-12-13T05:25:56.803Z,20.65
2017-12-13T05:28:25.075Z,10.30
2017-12-13T05:30:52.559Z,10.68
2017-12-13T05:33:20.798Z,15.38
2017-12-13T05:35:48.290Z,11.80
2017-12-13T05:38:16.523Z,13.43
2017-12-13T05:40:44.019Z,13.23
2017-12-13T05:43:12.264Z,10.75
2017-12-13T05:45:40.409Z,10.95
2017-12-13T05:48:07.879Z,13.95
2017-12-13T05:50:35.362Z,14.85
2017-12-13T05:53:02.886Z,12.60
2017-12-13T05:55:30.346Z,12.23
2017-12-13T05:57:57.867Z,12.27
2017-12-13T06:00:26.125Z,11.12
2017-12-13T06:02:53.624Z,9.45
2017-12-13T06:05:21.085Z,19.55
2017-12-13T06:07:48.597Z,13.10
2017-12-13T06:10:16.079Z,14.65
2017-12-13T06:12:44.306Z,13.10
2017-12-13T06:15:11.819Z,9.55
2017-12-13T06:17:39.283Z,17.80
2017-12-13T06:20:06.781Z,18.30
2017-12-13T06:22:34.234Z,18.62
2017-12-13T06:25:01.751Z,16.27
2017-12-13T06:27:29.982Z,14.95
2017-12-13T06:29:57.498Z,29.25
2017-12-13T06:32:24.970Z,19.35
2017-12-13T06:34:52.439Z,30.77
2017-12-13T06:37:20.013Z,23.65
2017-12-13T06:39:47.482Z,25.48
2017-12-13T06:42:14.954Z,22.87
2017-12-13T06:44:42.469Z,30.27
2017-12-13T06:47:09.977Z,45.30
2017-12-13T06:49:38.255Z,32.58
2017-12-13T06:52:05.758Z,35.60
2017-12-13T06:54:33.247Z,31.80
2017-12-13T06:57:00.737Z,33.45
2017-12-13T06:59:29.012Z,29.23
2017-12-13T07:01:56.509Z,35.50
2017-12-13T07:04:23.995Z,32.25
2017-12-13T07:06:51.499Z,31.42
2017-12-13T07:09:19.757Z,46.55
2017-12-13T07:11:47.247Z,56.00
2017-12-13T07:14:15.512Z,42.03
2017-12-13T07:16:43.778Z,42.65
2017-12-13T07:19:11.249Z,38.15
2017-12-13T07:21:39.537Z,33.25
2017-12-13T07:24:07.841Z,30.80
2017-12-13T07:26:35.313Z,28.52
2017-12-13T07:29:02.848Z,27.05
2017-12-13T07:31:30.317Z,31.50
2017-12-13T07:33:57.786Z,30.55
2017-12-13T07:36:25.290Z,28.48
2017-12-13T07:38:53.543Z,38.42
2017-12-13T07:41:21.070Z,39.22
2017-12-13T07:43:48.551Z,39.28
2017-12-13T07:46:16.058Z,35.58
2017-12-13T07:48:44.282Z,36.67
2017-12-13T07:51:11.819Z,44.28
2017-12-13T07:53:39.306Z,33.70
2017-12-13T07:56:06.781Z,39.05
2017-12-13T07:58:34.284Z,39.17
2017-12-13T08:01:01.791Z,37.08
2017-12-13T08:03:29.247Z,34.90
2017-12-13T08:05:56.770Z,34.13
2017-12-13T08:08:24.875Z,25.42
2017-12-13T08:10:52.362Z,25.98
2017-12-13T08:13:20.610Z,24.37
2017-12-13T08:15:48.118Z,20.83
2017-12-13T08:18:15.575Z,18.12
2017-12-13T08:20:43.074Z,19.80
2017-12-13T08:23:10.539Z,31.30
2017-12-13T08:25:38.019Z,22.58
2017-12-13T08:28:05.519Z,24.12
2017-12-13T08:30:33.007Z,21.62
2017-12-13T08:33:00.539Z,17.98
2017-12-13T08:35:28.037Z,22.70
2017-12-13T08:37:55.562Z,18.20
2017-12-13T08:40:23.024Z,28.05
2017-12-13T08:42:50.511Z,20.83
2017-12-13T08:45:18.070Z,30.92
2017-12-13T08:47:45.552Z,59.20
2017-12-13T08:50:13.040Z,52.30
2017-12-13T08:52:40.514Z,64.20
2017-12-13T08:55:08.905Z,47.72
2017-12-13T08:57:36.375Z,29.67
2017-12-13T09:00:03.870Z,28.67
2017-12-13T09:02:32.134Z,21.60
2017-12-13T09:04:59.605Z,23.80
2017-12-13T09:07:27.853Z,26.23
2017-12-13T09:09:55.318Z,35.15
2017-12-13T09:12:22.859Z,23.17
2017-12-13T09:14:50.335Z,23.10
2017-12-13T09:17:17.796Z,22.95
2017-12-13T09:19:45.304Z,19.58
2017-12-13T09:22:12.787Z,18.15
2017-12-13T09:24:40.283Z,23.08
2017-12-13T09:27:07.781Z,25.12
2017-12-13T09:29:35.262Z,21.87
2017-12-13T09:32:02.750Z,32.92
2017-12-13T09:34:30.254Z,20.85
2017-12-13T09:36:57.767Z,19.27
2017-12-13T09:39:25.239Z,24.12
2017-12-13T09:41:53.506Z,20.83
2017-12-13T09:44:20.975Z,17.23
2017-12-13T09:46:49.196Z,18.30
2017-12-13T09:49:16.676Z,19.55
2017-12-13T09:51:44.168Z,20.05
2017-12-13T09:54:11.676Z,25.08
2017-12-13T09:56:39.180Z,22.92
2017-12-13T09:59:06.700Z,16.05
2017-12-13T10:01:34.186Z,14.85
2017-12-13T10:04:01.658Z,17.40
2017-12-13T10:06:29.170Z,21.65
2017-12-13T10:08:56.654Z,16.77
2017-12-13T10:11:24.144Z,18.87
2017-12-13T10:13:52.511Z,14.20
2017-12-13T10:16:20.003Z,26.42
2017-12-13T10:18:47.476Z,17.50
2017-12-13T10:21:14.930Z,16.85
2017-12-13T10:23:42.433Z,14.10
2017-12-13T10:26:09.899Z,17.62
2017-12-13T10:28:37.427Z,25.37
2017-12-13T17:35:19.793Z,20.62
2017-12-13T17:37:47.280Z,15.15
2017-12-13T17:40:14.893Z,14.07
2017-12-13T17:42:42.366Z,20.17
2017-12-13T17:45:09.922Z,17.15
2017-12-13T17:47:37.382Z,11.07
2017-12-13T17:50:04.886Z,11.57
2017-12-13T17:52:32.384Z,12.77
2017-12-13T17:55:00.641Z,10.70
2017-12-13T17:57:28.866Z,16.62
2017-12-13T17:59:56.372Z,11.05
2017-12-13T18:02:24.600Z,11.10
2017-12-13T18:04:52.106Z,15.45
2017-12-13T18:07:20.331Z,13.13
2017-12-13T18:09:47.806Z,19.05
2017-12-13T18:12:15.284Z,12.80
2017-12-13T18:14:42.750Z,15.55
2017-12-13T18:17:11.021Z,13.10
2017-12-13T18:19:38.489Z,12.37
2017-12-13T18:22:06.715Z,11.35
2017-12-13T18:24:34.210Z,10.98
2017-12-13T18:27:01.697Z,10.40
2017-12-13T18:29:29.950Z,14.90
2017-12-13T18:31:57.417Z,14.87
2017-12-13T18:34:25.673Z,16.23
2017-12-13T18:36:53.167Z,12.85
2017-12-13T18:39:20.667Z,23.50
2017-12-13T18:41:48.151Z,11.10
2017-12-13T18:44:16.429Z,8.95
2017-12-13T18:46:43.908Z,15.52
2017-12-13T18:49:12.155Z,11.85
2017-12-13T18:51:39.680Z,17.50
2017-12-13T18:54:07.135Z,10.32
2017-12-13T18:56:34.599Z,17.12
2017-12-13T18:59:02.525Z,16.37
2017-12-13T19:01:30.755Z,15.55
2017-12-13T19:03:58.261Z,13.85
2017-12-13T19:06:26.531Z,10.40
2017-12-13T19:08:54.751Z,10.55
2017-12-13T19:11:22.263Z,11.85
2017-12-13T19:13:49.710Z,9.95
2017-12-13T19:16:18.719Z,7.55
2017-12-13T19:18:46.959Z,8.30
2017-12-13T19:21:14.448Z,14.40
2017-12-13T19:23:41.943Z,12.60
2017-12-13T19:26:09.440Z,6.70
2017-12-13T19:28:36.940Z,9.07
2017-12-13T19:31:05.159Z,4.82
2017-12-13T19:33:32.648Z,6.18
2017-12-13T19:36:00.114Z,6.70
2017-12-13T19:38:27.611Z,7.55
2017-12-13T19:40:55.126Z,9.60
2017-12-13T19:43:22.571Z,8.02
2017-12-13T19:45:50.058Z,11.43
2017-12-13T19:48:18.313Z,9.30
2017-12-13T19:50:45.849Z,8.30
2017-12-13T19:53:13.317Z,8.60
2017-12-13T19:55:40.827Z,8.60
2017-12-13T19:58:08.304Z,8.63
2017-12-13T20:00:35.862Z,5.70
2017-12-13T20:03:03.387Z,20.48
2017-12-13T20:05:31.623Z,8.98
2017-12-13T20:07:59.142Z,12.07
2017-12-13T20:10:26.610Z,9.55
2017-12-13T20:12:54.175Z,15.63
2017-12-13T20:15:21.643Z,7.50
2017-12-13T20:17:49.103Z,5.28
2017-12-13T20:20:16.583Z,7.50
2017-12-13T20:22:44.051Z,12.32
2017-12-13T20:25:11.558Z,4.78
2017-12-13T20:27:39.793Z,6.57
2017-12-13T20:30:07.274Z,7.68
2017-12-13T20:32:35.559Z,6.50
2017-12-13T20:35:03.790Z,8.25
2017-12-13T20:37:31.391Z,7.03
2017-12-13T20:39:59.656Z,5.12
2017-12-13T20:42:27.903Z,6.95
2017-12-13T20:44:55.410Z,7.78
2017-12-13T20:47:22.893Z,6.68
2017-12-13T20:49:50.397Z,7.90
2017-12-13T20:52:19.352Z,6.25
2017-12-13T20:54:46.873Z,4.55
2017-12-13T20:57:15.668Z,7.82
2017-12-13T20:59:43.886Z,14.35
2017-12-13T21:02:11.394Z,15.25
2017-12-13T21:04:39.679Z,8.07
2017-12-13T21:07:07.932Z,6.00
2017-12-13T21:09:35.422Z,4.85
2017-12-13T21:12:02.925Z,4.55
2017-12-13T21:14:30.392Z,5.60
2017-12-13T21:16:57.842Z,5.12
2017-12-13T21:19:25.345Z,5.72
2017-12-13T21:21:53.622Z,4.47
2017-12-13T21:24:21.218Z,9.70
2017-12-13T21:26:48.705Z,4.97
2017-12-13T21:29:16.175Z,7.37
2017-12-13T21:31:43.678Z,9.43
2017-12-13T21:34:11.136Z,6.03
2017-12-13T21:36:38.617Z,5.10
2017-12-13T21:39:06.111Z,4.07
2017-12-13T21:41:33.602Z,5.43
2017-12-13T21:44:01.070Z,4.10
2017-12-13T21:46:28.583Z,3.37
2017-12-13T21:48:56.071Z,6.90
2017-12-13T21:51:23.531Z,4.53
2017-12-13T21:53:51.027Z,5.97
2017-12-13T21:56:18.490Z,7.15
2017-12-13T21:58:45.973Z,5.18
2017-12-13T22:01:13.432Z,7.05
2017-12-13T22:03:40.919Z,7.15
2017-12-13T22:06:09.155Z,11.35
2017-12-13T22:08:36.667Z,11.12
2017-12-13T22:11:04.362Z,12.25
2017-12-13T22:13:31.883Z,12.70
2017-12-13T22:15:59.353Z,9.80
2017-12-13T22:18:26.829Z,12.10
2017-12-13T22:20:54.307Z,8.48
2017-12-13T22:23:21.784Z,8.70
2017-12-13T22:25:50.809Z,6.45
2017-12-13T22:28:18.288Z,6.90
2017-12-13T22:30:45.782Z,8.73
2017-12-13T22:33:13.246Z,16.08
2017-12-13T22:35:40.756Z,8.45
2017-12-13T22:38:08.255Z,10.52
2017-12-13T22:40:35.738Z,17.42
2017-12-13T22:43:03.238Z,6.20
2017-12-13T22:45:30.694Z,6.78
2017-12-13T22:47:58.212Z,11.40
2017-12-13T22:50:26.452Z,9.02
2017-12-13T22:52:53.918Z,5.57
2017-12-13T22:55:21.405Z,5.53
2017-12-13T22:57:48.874Z,10.88
2017-12-13T23:00:17.146Z,6.00
2017-12-13T23:02:45.374Z,5.57
2017-12-13T23:05:12.842Z,9.57
2017-12-13T23:07:40.338Z,5.18
2017-12-13T23:10:07.811Z,3.28
2017-12-13T23:12:35.302Z,4.70
2017-12-13T23:15:02.757Z,5.20
2017-12-13T23:17:30.267Z,5.57
2017-12-13T23:19:57.730Z,10.27
2017-12-13T23:22:25.989Z,7.25
2017-12-13T23:24:53.485Z,5.95
2017-12-13T23:27:21.706Z,5.47
2017-12-13T23:29:49.195Z,5.65
2017-12-13T23:32:17.427Z,4.78
2017-12-13T23:34:44.909Z,5.35
2017-12-13T23:37:12.374Z,5.57
2017-12-13T23:39:40.114Z,5.43
2017-12-13T23:42:07.641Z,7.50
2017-12-13T23:44:35.118Z,4.40
2017-12-13T23:47:02.636Z,3.62
2017-12-13T23:49:30.859Z,5.25
2017-12-13T23:51:58.366Z,5.62
2017-12-13T23:54:25.817Z,4.93
2017-12-13T23:56:53.287Z,4.25
2017-12-13T23:59:21.546Z,6.53
